sensor_id;sensor_type;location;lat;lon;timestamp;pressure;altitude;pressure_sealevel;temperature;humidity
55347;BME280;41218;55.700;38.270;2023-03-01T00:02:57;98944.06;;;-4.75;61.44
55347;BME280;41218;55.700;38.270;2023-03-01T00:07:58;98941.88;;;-4.73;61.50
55347;BME280;41218;55.700;38.270;2023-03-01T00:12:59;98945.41;;;-4.72;61.35
55347;BME280;41218;55.700;38.270;2023-03-01T00:17:59;98937.84;;;-4.70;61.61
55347;BME280;41218;55.700;38.270;2023-03-01T00:23:00;98938.91;;;-4.71;61.80
55347;BME280;41218;55.700;38.270;2023-03-01T00:28:00;98932.25;;;-4.79;61.63
55347;BME280;41218;55.700;38.270;2023-03-01T00:33:01;98941.16;;;-4.78;62.13
55347;BME280;41218;55.700;38.270;2023-03-01T00:38:02;98940.94;;;-4.82;61.59
55347;BME280;41218;55.700;38.270;2023-03-01T00:43:03;98938.53;;;-4.84;62.62
55347;BME280;41218;55.700;38.270;2023-03-01T00:48:04;98938.66;;;-4.94;61.94
55347;BME280;41218;55.700;38.270;2023-03-01T00:53:05;98930.91;;;-5.00;61.87
55347;BME280;41218;55.700;38.270;2023-03-01T00:58:06;98936.34;;;-5.06;62.16
55347;BME280;41218;55.700;38.270;2023-03-01T01:03:06;98923.25;;;-5.17;61.67
55347;BME280;41218;55.700;38.270;2023-03-01T01:08:07;98926.53;;;-5.20;61.61
55347;BME280;41218;55.700;38.270;2023-03-01T01:13:07;98920.41;;;-5.26;62.16
55347;BME280;41218;55.700;38.270;2023-03-01T01:18:08;98936.75;;;-5.17;61.74
55347;BME280;41218;55.700;38.270;2023-03-01T01:23:08;98933.59;;;-5.25;62.14
55347;BME280;41218;55.700;38.270;2023-03-01T01:28:09;98928.75;;;-5.28;61.72
55347;BME280;41218;55.700;38.270;2023-03-01T01:33:09;98926.44;;;-5.39;61.86
55347;BME280;41218;55.700;38.270;2023-03-01T01:38:10;98931.28;;;-5.36;61.63
55347;BME280;41218;55.700;38.270;2023-03-01T01:43:20;98931.03;;;-5.40;61.89
55347;BME280;41218;55.700;38.270;2023-03-01T01:48:24;98928.69;;;-5.47;62.09
55347;BME280;41218;55.700;38.270;2023-03-01T01:53:36;98935.06;;;-5.37;61.99
55347;BME280;41218;55.700;38.270;2023-03-01T01:58:38;98930.53;;;-5.42;61.85
55347;BME280;41218;55.700;38.270;2023-03-01T02:03:42;98930.53;;;-5.42;61.18
55347;BME280;41218;55.700;38.270;2023-03-01T02:08:46;98930.06;;;-5.49;61.41
55347;BME280;41218;55.700;38.270;2023-03-01T02:13:49;98939.19;;;-5.45;61.22
55347;BME280;41218;55.700;38.270;2023-03-01T02:18:50;98928.41;;;-5.45;60.98
55347;BME280;41218;55.700;38.270;2023-03-01T02:23:53;98915.75;;;-5.45;61.32
55347;BME280;41218;55.700;38.270;2023-03-01T02:28:54;98934.50;;;-5.34;60.22
55347;BME280;41218;55.700;38.270;2023-03-01T02:33:56;98926.69;;;-5.36;61.07
55347;BME280;41218;55.700;38.270;2023-03-01T02:38:59;98916.00;;;-5.41;60.69
55347;BME280;41218;55.700;38.270;2023-03-01T02:44:00;98931.09;;;-5.45;60.45
55347;BME280;41218;55.700;38.270;2023-03-01T02:49:00;98928.63;;;-5.41;60.51
55347;BME280;41218;55.700;38.270;2023-03-01T02:59:21;98930.59;;;-5.47;60.12
55347;BME280;41218;55.700;38.270;2023-03-01T03:04:22;98928.56;;;-5.60;60.15
55347;BME280;41218;55.700;38.270;2023-03-01T03:09:23;98948.69;;;-5.53;60.19
55347;BME280;41218;55.700;38.270;2023-03-01T03:14:23;98931.56;;;-5.67;60.46
55347;BME280;41218;55.700;38.270;2023-03-01T03:19:24;98950.88;;;-5.60;59.82
55347;BME280;41218;55.700;38.270;2023-03-01T03:24:24;98933.75;;;-5.69;59.47
55347;BME280;41218;55.700;38.270;2023-03-01T03:29:25;98942.38;;;-5.72;59.75
55347;BME280;41218;55.700;38.270;2023-03-01T03:34:25;98949.69;;;-5.78;59.39
55347;BME280;41218;55.700;38.270;2023-03-01T03:39:26;98959.13;;;-5.80;59.76
55347;BME280;41218;55.700;38.270;2023-03-01T03:44:27;98951.91;;;-5.85;60.14
55347;BME280;41218;55.700;38.270;2023-03-01T03:49:27;98954.09;;;-5.92;60.05
55347;BME280;41218;55.700;38.270;2023-03-01T03:54:28;98951.00;;;-6.05;60.15
55347;BME280;41218;55.700;38.270;2023-03-01T03:59:28;98962.53;;;-5.99;60.36
55347;BME280;41218;55.700;38.270;2023-03-01T04:04:29;98953.16;;;-6.07;60.03
55347;BME280;41218;55.700;38.270;2023-03-01T04:09:29;98965.81;;;-6.07;59.61
55347;BME280;41218;55.700;38.270;2023-03-01T04:14:30;98967.78;;;-6.18;60.29
55347;BME280;41218;55.700;38.270;2023-03-01T04:19:31;98975.00;;;-6.13;60.45
55347;BME280;41218;55.700;38.270;2023-03-01T04:24:36;98971.25;;;-6.17;60.27
55347;BME280;41218;55.700;38.270;2023-03-01T04:29:37;98986.09;;;-6.20;60.68
55347;BME280;41218;55.700;38.270;2023-03-01T04:34:37;98974.81;;;-6.27;60.32
55347;BME280;41218;55.700;38.270;2023-03-01T04:39:38;98985.56;;;-6.27;60.57
55347;BME280;41218;55.700;38.270;2023-03-01T04:44:45;98988.53;;;-6.29;60.15
55347;BME280;41218;55.700;38.270;2023-03-01T04:49:46;98995.84;;;-6.34;60.28
55347;BME280;41218;55.700;38.270;2023-03-01T04:54:46;99003.06;;;-6.30;60.77
55347;BME280;41218;55.700;38.270;2023-03-01T04:59:47;99008.41;;;-6.25;60.36
55347;BME280;41218;55.700;38.270;2023-03-01T05:04:47;99007.88;;;-6.21;60.15
55347;BME280;41218;55.700;38.270;2023-03-01T05:09:48;99001.44;;;-6.31;60.06
55347;BME280;41218;55.700;38.270;2023-03-01T05:14:48;99007.34;;;-6.23;60.25
55347;BME280;41218;55.700;38.270;2023-03-01T05:19:51;99018.06;;;-6.18;60.20
55347;BME280;41218;55.700;38.270;2023-03-01T05:24:51;99017.84;;;-6.22;60.16
55347;BME280;41218;55.700;38.270;2023-03-01T05:29:54;99017.84;;;-6.27;60.51
55347;BME280;41218;55.700;38.270;2023-03-01T05:34:54;99013.03;;;-6.30;59.97
55347;BME280;41218;55.700;38.270;2023-03-01T05:39:55;99019.75;;;-6.28;59.86
55347;BME280;41218;55.700;38.270;2023-03-01T05:44:55;99020.00;;;-6.24;59.93
55347;BME280;41218;55.700;38.270;2023-03-01T05:49:56;99042.78;;;-6.11;59.99
55347;BME280;41218;55.700;38.270;2023-03-01T05:54:57;99048.44;;;-6.08;60.34
55347;BME280;41218;55.700;38.270;2023-03-01T05:59:57;99036.59;;;-6.12;59.77
55347;BME280;41218;55.700;38.270;2023-03-01T06:04:58;99049.72;;;-6.00;60.00
55347;BME280;41218;55.700;38.270;2023-03-01T06:09:58;99057.66;;;-5.85;60.04
55347;BME280;41218;55.700;38.270;2023-03-01T06:14:59;99062.72;;;-5.78;59.81
55347;BME280;41218;55.700;38.270;2023-03-01T06:20:00;99072.38;;;-5.72;59.14
55347;BME280;41218;55.700;38.270;2023-03-01T06:25:01;99075.59;;;-5.65;58.91
55347;BME280;41218;55.700;38.270;2023-03-01T06:30:02;99075.84;;;-5.61;59.57
55347;BME280;41218;55.700;38.270;2023-03-01T06:35:03;99081.41;;;-5.47;59.35
55347;BME280;41218;55.700;38.270;2023-03-01T06:40:05;99084.25;;;-5.33;58.45
55347;BME280;41218;55.700;38.270;2023-03-01T06:45:09;99078.06;;;-5.34;58.53
55347;BME280;41218;55.700;38.270;2023-03-01T06:50:10;99091.44;;;-5.24;58.86
55347;BME280;41218;55.700;38.270;2023-03-01T06:55:12;99078.47;;;-5.16;58.17
55347;BME280;41218;55.700;38.270;2023-03-01T07:00:13;99083.19;;;-5.03;58.10
55347;BME280;41218;55.700;38.270;2023-03-01T07:05:14;99093.31;;;-4.90;58.77
55347;BME280;41218;55.700;38.270;2023-03-01T07:10:14;99090.28;;;-4.83;58.12
55347;BME280;41218;55.700;38.270;2023-03-01T07:15:15;99087.03;;;-4.80;57.68
55347;BME280;41218;55.700;38.270;2023-03-01T07:20:17;99094.44;;;-4.67;58.02
55347;BME280;41218;55.700;38.270;2023-03-01T07:25:17;99105.63;;;-4.54;57.84
55347;BME280;41218;55.700;38.270;2023-03-01T07:30:19;99124.38;;;-4.39;58.11
55347;BME280;41218;55.700;38.270;2023-03-01T07:35:20;99096.88;;;-4.41;57.53
55347;BME280;41218;55.700;38.270;2023-03-01T07:40:21;99110.47;;;-4.27;57.80
55347;BME280;41218;55.700;38.270;2023-03-01T07:45:21;99120.53;;;-4.09;57.33
55347;BME280;41218;55.700;38.270;2023-03-01T07:50:22;99125.03;;;-4.04;57.22
55347;BME280;41218;55.700;38.270;2023-03-01T07:55:23;99113.69;;;-4.01;57.62
55347;BME280;41218;55.700;38.270;2023-03-01T08:00:23;99126.19;;;-3.86;57.12
55347;BME280;41218;55.700;38.270;2023-03-01T08:05:24;99126.13;;;-3.81;56.75
55347;BME280;41218;55.700;38.270;2023-03-01T08:10:24;99129.78;;;-3.72;57.02
55347;BME280;41218;55.700;38.270;2023-03-01T08:15:25;99104.53;;;-3.81;56.54
55347;BME280;41218;55.700;38.270;2023-03-01T08:20:25;99127.06;;;-3.91;56.53
55347;BME280;41218;55.700;38.270;2023-03-01T08:25:26;99135.91;;;-3.85;57.16
55347;BME280;41218;55.700;38.270;2023-03-01T08:30:27;99140.47;;;-3.86;56.61
55347;BME280;41218;55.700;38.270;2023-03-01T08:35:27;99126.69;;;-3.84;57.19
55347;BME280;41218;55.700;38.270;2023-03-01T08:40:28;99116.34;;;-3.77;57.13
55347;BME280;41218;55.700;38.270;2023-03-01T08:45:28;99108.63;;;-3.65;56.86
55347;BME280;41218;55.700;38.270;2023-03-01T08:50:29;99128.69;;;-3.52;56.44
55347;BME280;41218;55.700;38.270;2023-03-01T08:55:29;99131.63;;;-3.48;56.71
55347;BME280;41218;55.700;38.270;2023-03-01T09:00:30;99145.22;;;-3.34;56.47
55347;BME280;41218;55.700;38.270;2023-03-01T09:05:34;99131.25;;;-3.42;56.03
55347;BME280;41218;55.700;38.270;2023-03-01T09:10:37;99141.34;;;-3.28;56.12
55347;BME280;41218;55.700;38.270;2023-03-01T09:15:38;99140.28;;;-3.13;56.12
55347;BME280;41218;55.700;38.270;2023-03-01T09:20:39;99132.91;;;-3.08;55.49
55347;BME280;41218;55.700;38.270;2023-03-01T09:25:39;99149.56;;;-3.00;56.04
55347;BME280;41218;55.700;38.270;2023-03-01T09:30:40;99160.13;;;-2.85;54.58
55347;BME280;41218;55.700;38.270;2023-03-01T09:35:40;99140.88;;;-2.97;54.71
55347;BME280;41218;55.700;38.270;2023-03-01T09:40:46;99146.19;;;-2.92;54.50
55347;BME280;41218;55.700;38.270;2023-03-01T09:45:48;99147.19;;;-2.88;54.97
55347;BME280;41218;55.700;38.270;2023-03-01T09:50:51;99156.53;;;-2.80;55.10
55347;BME280;41218;55.700;38.270;2023-03-01T09:55:54;99149.44;;;-2.76;55.17
55347;BME280;41218;55.700;38.270;2023-03-01T10:06:21;99140.03;;;-2.79;54.56
55347;BME280;41218;55.700;38.270;2023-03-01T10:11:38;99139.06;;;-2.69;54.44
55347;BME280;41218;55.700;38.270;2023-03-01T10:16:52;99147.00;;;-2.59;54.38
55347;BME280;41218;55.700;38.270;2023-03-01T10:21:58;99131.25;;;-2.57;54.33
55347;BME280;41218;55.700;38.270;2023-03-01T10:27:24;99152.13;;;-2.30;53.71
55347;BME280;41218;55.700;38.270;2023-03-01T10:32:25;99151.03;;;-2.43;54.14
55347;BME280;41218;55.700;38.270;2023-03-01T10:37:26;99156.66;;;-2.39;54.33
55347;BME280;41218;55.700;38.270;2023-03-01T10:42:31;99148.84;;;-2.27;54.54
55347;BME280;41218;55.700;38.270;2023-03-01T10:47:32;99161.19;;;-2.07;54.25
55347;BME280;41218;55.700;38.270;2023-03-01T10:52:35;99171.00;;;-1.97;53.92
55347;BME280;41218;55.700;38.270;2023-03-01T10:57:38;99175.50;;;-1.78;53.28
55347;BME280;41218;55.700;38.270;2023-03-01T11:02:40;99176.34;;;-1.78;53.79
55347;BME280;41218;55.700;38.270;2023-03-01T11:07:55;99179.25;;;-1.74;53.35
55347;BME280;41218;55.700;38.270;2023-03-01T11:13:16;99183.06;;;-1.75;53.24
55347;BME280;41218;55.700;38.270;2023-03-01T11:18:22;99173.94;;;-1.79;52.50
55347;BME280;41218;55.700;38.270;2023-03-01T11:23:23;99164.50;;;-1.82;52.45
55347;BME280;41218;55.700;38.270;2023-03-01T11:28:24;99168.22;;;-1.78;53.07
55347;BME280;41218;55.700;38.270;2023-03-01T11:33:48;99177.63;;;-1.89;53.06
55347;BME280;41218;55.700;38.270;2023-03-01T11:38:50;99177.44;;;-1.93;52.85
55347;BME280;41218;55.700;38.270;2023-03-01T12:20:32;99208.72;;;-1.87;52.61
55347;BME280;41218;55.700;38.270;2023-03-01T12:41:40;99196.59;;;-1.89;52.91
55347;BME280;41218;55.700;38.270;2023-03-01T12:52:00;99203.72;;;-1.79;52.31
55347;BME280;41218;55.700;38.270;2023-03-01T13:02:45;99193.97;;;-1.81;51.95
55347;BME280;41218;55.700;38.270;2023-03-01T13:07:53;99194.81;;;-1.80;51.92
55347;BME280;41218;55.700;38.270;2023-03-01T13:28:39;99187.25;;;-1.97;52.35
55347;BME280;41218;55.700;38.270;2023-03-01T13:33:51;99174.34;;;-2.00;52.38
55347;BME280;41218;55.700;38.270;2023-03-01T13:43:59;99174.53;;;-1.96;52.16
55347;BME280;41218;55.700;38.270;2023-03-01T13:49:00;99170.81;;;-2.00;51.71
55347;BME280;41218;55.700;38.270;2023-03-01T13:54:00;99170.81;;;-2.00;52.58
55347;BME280;41218;55.700;38.270;2023-03-01T13:59:03;99159.06;;;-2.10;52.53
55347;BME280;41218;55.700;38.270;2023-03-01T14:09:25;99165.91;;;-2.12;52.28
55347;BME280;41218;55.700;38.270;2023-03-01T14:20:21;99172.00;;;-2.20;52.02
55347;BME280;41218;55.700;38.270;2023-03-01T14:25:34;99164.47;;;-2.24;52.47
55347;BME280;41218;55.700;38.270;2023-03-01T14:30:38;99175.41;;;-2.29;52.89
55347;BME280;41218;55.700;38.270;2023-03-01T14:35:41;99153.53;;;-2.46;52.54
55347;BME280;41218;55.700;38.270;2023-03-01T14:40:42;99167.16;;;-2.51;52.70
55347;BME280;41218;55.700;38.270;2023-03-01T14:45:47;99174.66;;;-2.48;52.80
55347;BME280;41218;55.700;38.270;2023-03-01T14:50:49;99163.50;;;-2.60;52.60
55347;BME280;41218;55.700;38.270;2023-03-01T14:55:53;99180.53;;;-2.60;52.10
55347;BME280;41218;55.700;38.270;2023-03-01T15:00:57;99160.25;;;-2.76;51.63
55347;BME280;41218;55.700;38.270;2023-03-01T15:06:00;99166.97;;;-2.74;51.93
55347;BME280;41218;55.700;38.270;2023-03-01T15:16:11;99167.13;;;-2.84;52.08
55347;BME280;41218;55.700;38.270;2023-03-01T15:26:29;99166.06;;;-2.83;52.12
55347;BME280;41218;55.700;38.270;2023-03-01T15:31:36;99159.63;;;-2.87;52.33
55347;BME280;41218;55.700;38.270;2023-03-01T15:36:41;99163.06;;;-2.82;52.27
55347;BME280;41218;55.700;38.270;2023-03-01T15:41:48;99168.53;;;-2.87;52.26
55347;BME280;41218;55.700;38.270;2023-03-01T15:46:49;99161.03;;;-2.90;52.92
55347;BME280;41218;55.700;38.270;2023-03-01T15:51:51;99158.31;;;-2.90;52.92
55347;BME280;41218;55.700;38.270;2023-03-01T15:56:53;99151.59;;;-2.92;53.08
55347;BME280;41218;55.700;38.270;2023-03-01T16:01:54;99153.78;;;-2.94;53.69
55347;BME280;41218;55.700;38.270;2023-03-01T16:06:54;99156.47;;;-2.94;53.61
55347;BME280;41218;55.700;38.270;2023-03-01T16:11:55;99153.09;;;-3.00;53.42
55347;BME280;41218;55.700;38.270;2023-03-01T16:16:56;99151.47;;;-3.01;53.87
55347;BME280;41218;55.700;38.270;2023-03-01T16:21:56;99144.75;;;-3.04;54.21
55347;BME280;41218;55.700;38.270;2023-03-01T16:26:57;99143.78;;;-3.13;54.54
55347;BME280;41218;55.700;38.270;2023-03-01T16:32:00;99140.81;;;-3.11;54.38
55347;BME280;41218;55.700;38.270;2023-03-01T16:37:01;99143.50;;;-3.11;55.05
55347;BME280;41218;55.700;38.270;2023-03-01T16:42:02;99146.28;;;-3.16;54.73
55347;BME280;41218;55.700;38.270;2023-03-01T16:47:02;99135.94;;;-3.28;55.50
55347;BME280;41218;55.700;38.270;2023-03-01T16:52:03;99129.50;;;-3.32;55.20
55347;BME280;41218;55.700;38.270;2023-03-01T16:57:03;99133.53;;;-3.30;55.77
55347;BME280;41218;55.700;38.270;2023-03-01T17:02:04;99111.97;;;-3.35;55.70
55347;BME280;41218;55.700;38.270;2023-03-01T17:07:09;99118.69;;;-3.32;55.82
55347;BME280;41218;55.700;38.270;2023-03-01T17:12:14;99128.25;;;-3.21;55.69
55347;BME280;41218;55.700;38.270;2023-03-01T17:17:15;99117.72;;;-3.23;55.45
55347;BME280;41218;55.700;38.270;2023-03-01T17:22:16;99113.41;;;-3.24;55.59
55347;BME280;41218;55.700;38.270;2023-03-01T17:27:17;99112.13;;;-3.26;55.85
55347;BME280;41218;55.700;38.270;2023-03-01T17:32:18;99114.50;;;-3.25;55.65
55347;BME280;41218;55.700;38.270;2023-03-01T17:37:19;99115.63;;;-3.26;55.47
55347;BME280;41218;55.700;38.270;2023-03-01T17:42:20;99109.94;;;-3.24;55.29
55347;BME280;41218;55.700;38.270;2023-03-01T17:47:20;99107.66;;;-3.36;55.58
55347;BME280;41218;55.700;38.270;2023-03-01T17:52:21;99092.84;;;-3.38;55.60
55347;BME280;41218;55.700;38.270;2023-03-01T17:57:23;99105.53;;;-3.39;55.32
55347;BME280;41218;55.700;38.270;2023-03-01T18:02:23;99110.66;;;-3.37;55.28
55347;BME280;41218;55.700;38.270;2023-03-01T18:07:28;99106.38;;;-3.38;55.62
55347;BME280;41218;55.700;38.270;2023-03-01T18:12:30;99105.63;;;-3.44;55.56
55347;BME280;41218;55.700;38.270;2023-03-01T18:17:30;99105.34;;;-3.43;55.49
55347;BME280;41218;55.700;38.270;2023-03-01T18:22:32;99101.31;;;-3.45;55.88
55347;BME280;41218;55.700;38.270;2023-03-01T18:27:32;99091.94;;;-3.53;56.14
55347;BME280;41218;55.700;38.270;2023-03-01T18:32:33;99097.59;;;-3.49;56.21
55347;BME280;41218;55.700;38.270;2023-03-01T18:37:34;99093.84;;;-3.53;56.44
55347;BME280;41218;55.700;38.270;2023-03-01T18:42:34;99089.47;;;-3.49;56.34
55347;BME280;41218;55.700;38.270;2023-03-01T18:47:35;99093.28;;;-3.50;56.94
55347;BME280;41218;55.700;38.270;2023-03-01T18:52:35;99081.75;;;-3.56;56.72
55347;BME280;41218;55.700;38.270;2023-03-01T18:57:36;99064.06;;;-3.67;56.76
55347;BME280;41218;55.700;38.270;2023-03-01T19:02:36;99083.34;;;-3.55;56.89
55347;BME280;41218;55.700;38.270;2023-03-01T19:07:37;99084.69;;;-3.52;56.97
55347;BME280;41218;55.700;38.270;2023-03-01T19:12:37;99074.16;;;-3.54;57.12
55347;BME280;41218;55.700;38.270;2023-03-01T19:17:38;99079.78;;;-3.50;56.83
55347;BME280;41218;55.700;38.270;2023-03-01T19:22:39;99060.94;;;-3.55;57.31
55347;BME280;41218;55.700;38.270;2023-03-01T19:27:39;99064.59;;;-3.46;57.23
55347;BME280;41218;55.700;38.270;2023-03-01T19:32:40;99051.94;;;-3.51;57.57
55347;BME280;41218;55.700;38.270;2023-03-01T19:37:40;99062.09;;;-3.43;57.54
55347;BME280;41218;55.700;38.270;2023-03-01T19:42:41;99052.88;;;-3.42;57.72
55347;BME280;41218;55.700;38.270;2023-03-01T19:47:45;99063.41;;;-3.40;57.58
55347;BME280;41218;55.700;38.270;2023-03-01T19:52:46;99049.19;;;-3.46;57.93
55347;BME280;41218;55.700;38.270;2023-03-01T19:57:46;99052.59;;;-3.40;58.02
55347;BME280;41218;55.700;38.270;2023-03-01T20:02:47;99044.06;;;-3.47;57.94
55347;BME280;41218;55.700;38.270;2023-03-01T20:07:48;99046.09;;;-3.39;58.11
55347;BME280;41218;55.700;38.270;2023-03-01T20:12:50;99040.56;;;-3.48;58.23
55347;BME280;41218;55.700;38.270;2023-03-01T20:17:50;99040.78;;;-3.44;58.11
55347;BME280;41218;55.700;38.270;2023-03-01T20:22:51;99059.09;;;-3.41;58.39
55347;BME280;41218;55.700;38.270;2023-03-01T20:27:51;99050.13;;;-3.36;58.49
55347;BME280;41218;55.700;38.270;2023-03-01T20:32:52;99046.91;;;-3.38;58.73
55347;BME280;41218;55.700;38.270;2023-03-01T20:37:53;99034.47;;;-3.39;58.46
55347;BME280;41218;55.700;38.270;2023-03-01T20:42:54;99040.41;;;-3.37;58.97
55347;BME280;41218;55.700;38.270;2023-03-01T20:47:54;99039.88;;;-3.39;59.00
55347;BME280;41218;55.700;38.270;2023-03-01T20:52:55;99035.78;;;-3.37;59.00
55347;BME280;41218;55.700;38.270;2023-03-01T20:57:55;99043.09;;;-3.37;58.87
55347;BME280;41218;55.700;38.270;2023-03-01T21:02:56;99032.00;;;-3.36;58.98
55347;BME280;41218;55.700;38.270;2023-03-01T21:07:56;99023.91;;;-3.36;59.22
55347;BME280;41218;55.700;38.270;2023-03-01T21:13:00;99011.69;;;-3.33;59.30
55347;BME280;41218;55.700;38.270;2023-03-01T21:18:00;99010.38;;;-3.36;59.74
55347;BME280;41218;55.700;38.270;2023-03-01T21:23:01;99007.97;;;-3.37;59.66
55347;BME280;41218;55.700;38.270;2023-03-01T21:28:01;99010.25;;;-3.45;59.81
55347;BME280;41218;55.700;38.270;2023-03-01T21:33:02;99032.69;;;-3.44;59.26
55347;BME280;41218;55.700;38.270;2023-03-01T21:38:03;99026.09;;;-3.57;59.67
55347;BME280;41218;55.700;38.270;2023-03-01T21:43:03;99026.09;;;-3.57;59.59
55347;BME280;41218;55.700;38.270;2023-03-01T21:48:04;99033.69;;;-3.59;60.15
55347;BME280;41218;55.700;38.270;2023-03-01T21:53:04;99036.72;;;-3.60;60.07
55347;BME280;41218;55.700;38.270;2023-03-01T21:58:05;99019.78;;;-3.66;60.13
55347;BME280;41218;55.700;38.270;2023-03-01T22:03:05;99025.69;;;-3.64;60.77
55347;BME280;41218;55.700;38.270;2023-03-01T22:08:06;99027.28;;;-3.63;60.16
55347;BME280;41218;55.700;38.270;2023-03-01T22:13:07;99035.38;;;-3.63;60.32
55347;BME280;41218;55.700;38.270;2023-03-01T22:18:09;99033.56;;;-3.68;60.58
55347;BME280;41218;55.700;38.270;2023-03-01T22:23:10;99042.56;;;-3.72;60.91
55347;BME280;41218;55.700;38.270;2023-03-01T22:28:10;99023.66;;;-3.72;61.21
55347;BME280;41218;55.700;38.270;2023-03-01T22:33:11;99021.22;;;-3.74;61.36
55347;BME280;41218;55.700;38.270;2023-03-01T22:38:11;99019.13;;;-3.77;60.82
55347;BME280;41218;55.700;38.270;2023-03-01T22:43:12;99040.94;;;-3.73;61.79
55347;BME280;41218;55.700;38.270;2023-03-01T22:48:12;99035.13;;;-3.80;61.60
55347;BME280;41218;55.700;38.270;2023-03-01T22:53:14;99051.75;;;-3.73;61.82
55347;BME280;41218;55.700;38.270;2023-03-01T22:58:14;99041.91;;;-3.83;61.49
55347;BME280;41218;55.700;38.270;2023-03-01T23:03:15;99038.09;;;-3.82;62.03
55347;BME280;41218;55.700;38.270;2023-03-01T23:08:16;99053.94;;;-3.75;61.55
55347;BME280;41218;55.700;38.270;2023-03-01T23:13:16;99044.59;;;-3.83;61.77
55347;BME280;41218;55.700;38.270;2023-03-01T23:18:17;99040.28;;;-3.84;61.83
55347;BME280;41218;55.700;38.270;2023-03-01T23:23:18;99051.69;;;-3.87;62.18
55347;BME280;41218;55.700;38.270;2023-03-01T23:28:19;99058.75;;;-3.91;61.95
55347;BME280;41218;55.700;38.270;2023-03-01T23:33:19;99045.09;;;-4.00;61.56
55347;BME280;41218;55.700;38.270;2023-03-01T23:38:20;99038.09;;;-4.01;62.17
55347;BME280;41218;55.700;38.270;2023-03-01T23:43:21;99058.06;;;-4.02;62.35
55347;BME280;41218;55.700;38.270;2023-03-01T23:48:21;99048.16;;;-4.07;62.18
55347;BME280;41218;55.700;38.270;2023-03-01T23:53:22;99047.66;;;-4.09;62.33
55347;BME280;41218;55.700;38.270;2023-03-01T23:58:22;99053.31;;;-4.10;62.46
